Flight Track Log - Related Links

Times and Time Zones

All times are in EDT time to prevent confusion due to time zone crossing. See the DCM1130 flight status page for this flight to view local times or setup timezone preferences in your user account.

Time Position Orientation Groundspeed Altitude Reporting Facility
EDT Latitude Longitude Course Direction KTS MPH feet Rate Location/Type
Thu 04:17:24 PM 43.2167 -79.8653 148° Southeast 431 496 3,200  Level Cleveland Center
Thu 04:17:50 PM 43.2333 -79.8167 65° Northeast 240 276 4,400 1,884 Climbing Toronto Center
Thu 04:18:50 PM 43.2167 -79.7167 103° East 250 288 5,900 2,050 Climbing Toronto Center
Thu 04:19:50 PM 43.1500 -79.6833 160° South 260 299 8,500 2,400 Climbing Toronto Center
Thu 04:20:50 PM 43.0833 -79.6333 151° Southeast 270 311 10,700 2,100 Climbing Toronto Center
Thu 04:21:50 PM 43.0000 -79.5833 156° South 330 380 12,700 2,200 Climbing Toronto Center
Thu 04:22:00 PM 42.6032 -79.4654 148° Southeast  Level FlightAware Approximate
Thu 04:22:50 PM 42.9000 -79.5667 173° South 340 391 15,100  Level Toronto Center
Thu 04:23:24 PM 42.8644 -79.5919 208° Southwest 332 382 16,300 2,106 Climbing Cleveland Center
Thu 04:24:24 PM 42.7667 -79.5989 183° South 344 396 18,400 2,050 Climbing Cleveland Center
Thu 04:25:24 PM 42.6747 -79.5778 170° South 344 396 20,400 1,900 Climbing Cleveland Center
Thu 04:26:24 PM 42.5928 -79.4944 143° Southeast 340 391 22,200 1,300 Climbing Cleveland Center
Thu 04:27:24 PM 42.5064 -79.4172 147° Southeast 353 406 23,000 450 Climbing Cleveland Center
Thu 04:28:24 PM 42.4117 -79.3289 145° Southeast 384 442 23,100 900 Climbing Cleveland Center
Thu 04:29:24 PM 42.3211 -79.2464 146° Southeast 397 457 24,800 1,650 Climbing Cleveland Center
Thu 04:30:24 PM 42.2325 -79.1614 145° Southeast 397 457 26,400 1,550 Climbing Cleveland Center
Thu 04:31:24 PM 42.1419 -79.0822 147° Southeast 397 457 27,900 1,250 Climbing Cleveland Center
Thu 04:32:24 PM 42.0450 -78.9978 147° Southeast 397 457 28,900 550 Climbing Cleveland Center
Thu 04:33:24 PM 41.9478 -78.9081 146° Southeast 410 472 29,000 50 Climbing Cleveland Center
Thu 04:34:24 PM 41.8486 -78.8186 146° Southeast 424 488 29,000 -50 Level Cleveland Center
Thu 04:35:24 PM 41.7492 -78.7267 145° Southeast 429 494 28,900 -550 Descending Cleveland Center
Thu 04:36:24 PM 41.6475 -78.6381 147° Southeast 429 494 27,900 -950 Descending Cleveland Center
Thu 04:37:24 PM 41.5481 -78.5494 146° Southeast 429 494 27,000 -450 Descending Cleveland Center
Thu 04:38:24 PM 41.4506 -78.4639 147° Southeast 429 494 27,000 -723 Level Cleveland Center
Thu 04:40:10 PM 41.2897 -78.3208 146° Southeast 430 495 25,000 -348 Descending New York Center
Thu 04:42:00 PM 41.1431 -78.1899 146° Southeast  Level FlightAware Approximate
Thu 04:44:09 PM 40.9064 -77.9817 130° Southeast 412 474 25,000  Level New York Center
Thu 04:46:00 PM 40.7862 -77.8076 132° Southeast  Level FlightAware Approximate
Thu 04:46:10 PM 40.7592 -77.7606 110° East 407 468 22,400  Level New York Center
Thu 04:47:10 PM 40.6886 -77.6464 129° Southeast 402 463 20,900 -1,488 Descending New York Center
Thu 04:48:11 PM 40.6203 -77.5331 128° Southeast 397 457 19,400 -1,438 Descending New York Center
Thu 04:49:00 PM 40.6468 -77.5993 130° Southeast  Level FlightAware Approximate
Thu 04:49:11 PM 40.5636 -77.3908 118° Southeast 402 463 18,000  Level New York Center
Thu 04:50:11 PM 40.5200 -77.2772 117° Southeast 397 457 18,000  Level New York Center
Thu 04:51:09 PM 40.4631 -77.1356 118° Southeast 397 457 18,000  Level New York Center
Thu 04:52:09 PM 40.4189 -77.0250 118° Southeast 392 451 18,000  Level New York Center
Thu 04:53:00 PM 40.3437 -77.1320 131° Southeast  Level FlightAware Approximate
Thu 04:53:10 PM 40.3614 -76.8864 119° Southeast 392 451 18,000  Level New York Center
Thu 04:54:00 PM 40.2895 -77.0297 110° East  Level FlightAware Approximate
Thu 04:54:11 PM 40.3117 -76.7622 118° Southeast 392 451 18,000  Level New York Center
Thu 04:55:09 PM 40.2614 -76.6408 118° Southeast 392 451 13,000 -915 Descending New York Center
Thu 04:56:09 PM 40.2131 -76.5197 118° Southeast 382 440 16,200 893 Climbing New York Center
Thu 04:57:10 PM 40.1683 -76.4128 119° Southeast 376 433 14,800 -1,475 Descending New York Center
Thu 04:58:11 PM 40.1203 -76.2842 116° Southeast 365 420 13,200 -1,488 Descending New York Center
Thu 04:59:11 PM 40.1108 -76.1692 96° East 344 396 11,800 -1,400 Descending New York Center
Thu 05:00:11 PM 40.1058 -76.0522 93° East 334 384 10,400 -1,475 Descending New York Center
Thu 05:01:09 PM 40.0978 -75.9511 96° East 303 349 8,900 -1,261 Descending New York Center
Thu 05:02:10 PM 40.0917 -75.8531 95° East 279 321 7,900 -496 Descending New York Center
Thu 05:03:10 PM 40.0831 -75.7575 97° East 266 306 7,900 -298 Level New York Center
Thu 05:04:11 PM 40.0850 -75.6625 88° East 266 306 7,300 -793 Descending New York Center
Thu 05:05:11 PM 40.0844 -75.5731 90° East 255 293 6,300 -1,300 Descending New York Center
Thu 05:06:11 PM 40.0861 -75.4836 89° East 249 287 4,700 -1,664 Descending New York Center
Thu 05:07:10 PM 40.0839 -75.3831 92° East 244 281 3,000 -857 Descending New York Center
Thu 05:08:10 PM 40.0853 -75.2908 89° East 249 287 3,000 -50 Level New York Center
Thu 05:09:09 PM 40.1047 -75.2161 71° East 225 259 2,900  Descending New York Center
Thu 05:10:09 PM 40.1442 -75.1669 44° Northeast 202 232 3,000  Climbing New York Center
Thu 05:11:10 PM 40.1794 -75.1178 47° Northeast 194 223 2,900 -488 Descending New York Center
Thu 05:12:12 PM 40.1475 -75.0778 136° Southeast 117 135 2,000 -1,008 Descending New York Center
Thu 05:13:09 PM 40.1111 -75.0428 144° Southeast 124 143 900 3,077 Descending New York Center
Thu 05:14:09 PM 40.0831 -75.0139 142° Southeast 137 158 8,000 3,492 Climbing New York Center
Thu 05:15:11 PM 40.0569 -74.9881 143° Southeast 137 158 8,000  Level New York Center
Thu 05:16:11 PM 40.0267 -74.9592 144° Southeast 137 158 8,000  Level New York Center
Thu 05:17:11 PM 39.9964 -74.9300 144° Southeast 137 158 8,000  Level New York Center
Thu 05:18:09 PM 39.9661 -74.9011 144° Southeast 137 158 8,000  Level New York Center
Thu 05:19:10 PM 39.9542 -74.8897 144° Southeast 137 158 8,000  Level New York Center
Thu 05:21:00 PM 40.0667 -75.0000 327° Northwest  Level FlightAware Approximate
Thu 05:28:00 PM 40.0819 -75.0106 327° Northwest  Level Estimated
Thu 05:29:00 PM 40.0819 -75.0106 327° Northwest  Level Estimated
Thu 05:30:00 PM 40.0819 -75.0106 327° Northwest  Level Estimated

Login

Don't have an account? Register now (free) for customized features, flight alerts, and more!